Historyczne dane pomiarowe

Dodano dane terminowe – wersja testowa.

Dane z okresu 1951-2019

Wersja bazy: 1.34 [2019-03-16, lista zmian], aktualizacja planowana na 2019-04-15

Dane meteo z obszaru Polski uzyskane na podstawie danych udostępnionych przez Instytut Meteorologii i Gospodarki Wodnej – Państwowy Instytut Badawczy.

 

Wybierz Datę:    

       

TemperaturaWilgotnośćWiatrCiśnienieOpadyŚniegCzas trwania zjawisk
 Stacja t tx tn tng RH VA  wxwx mslp ppp RRR   cm mm wxwxwxwxwxwxwx
1969-06-13 20.3 27.0 8.0--- 2.0 2.0---- 0.0------------
1969-06-14 21.2 27.0 12.6--- 2.7 3.0---- 0.0------------
1969-06-15 20.3 27.5 12.0--- 1.0 1.3---- 0.0------------
1969-06-16 18.2 24.9 9.9--- 3.3 3.0---- 0.0------------
1969-06-17 19.3 24.2 13.4--- 4.0 1.7---- 3.7------------
1969-06-18 20.3 26.4 10.9--- 2.0 2.0---- 0.0------------
1969-06-19 21.4 26.9 11.1--- 4.0 3.0---- 1.0------------
1969-06-20 18.6 22.8 16.5--- 7.0 1.7---- 24.1------------
1969-06-21 16.1 18.8 15.0--- 8.0 1.3---- 9.1------------
1969-06-22 17.1 23.0 13.4--- 7.7 1.3---- 4.5------------
1969-06-23 18.6 25.5 14.0--- 3.7 2.0---- 0.0------------
1969-06-24 19.4 25.1 12.1--- 0.3 2.7---- 0.0------------
1969-06-25 17.3 22.2 13.2--- 1.3 2.7---- 0.0------------
1969-06-26 14.3 20.4 10.3--- 0.3 2.7---- 0.0------------
1969-06-27 16.2 23.4 5.5--- 0.0 1.3---- 0.0------------
1969-06-28 14.3 20.4 5.0--- 6.7 3.7---- 0.0------------
1969-06-29 13.0 17.6 10.1--- 3.0 3.0---- 0.0------------
1969-06-30 13.2 19.5 6.8--- 3.3 2.0---- 0.0------------
1969-07-01 16.2 20.4 6.8--- 7.0 3.3---- 0.0------------
1969-07-02 16.2 18.5 12.0--- 8.0 3.7---- 0.2------------
1969-07-03 14.8 18.3 13.1--- 7.7 5.0---- 0.0------------
1969-07-04 14.3 19.2 9.5--- 4.7 3.3---- 0.0------------
1969-07-05 18.4 24.7 8.1--- 1.7 2.3---- 0.0------------
1969-07-06 15.8 22.2 10.5--- 7.7 2.3---- 0.0------------
1969-07-07 21.0 27.7 10.7--- 5.3 4.3---- 0.7------------
1969-07-08 13.6 19.5 11.6--- 8.0 2.0---- 0.0------------
1969-07-09 12.0 17.2 10.9--- 8.0 1.0---- 5.5------------
1969-07-10 14.0 19.3 6.6--- 4.0 0.7---- 1.1------------
1969-07-11 12.4 17.8 5.9--- 2.3 1.7---- 0.2------------
1969-07-12 14.5 18.8 4.0--- 5.7 2.7---- 0.0------------
127.2 ms

 

Źródłem pochodzenia danych jest Instytut Meteorologii i Gospodarki Wodnej – Państwowy Instytut Badawczy. Dane Instytutu Meteorologii i Gospodarki Wodnej – Państwowego Instytutu Badawczego zostały przetworzone.

Dane źródłowe można odnaleźć na stronie https://dane.imgw.pl